Time;durP1;ratioP1;P1;durP2;ratioP2;P2;SDS_P1;SDS_P2;PMS_P1;PMS_P2;Temp;Humidity;BMP_temperature;BMP_pressure;BME280_temperature;BME280_humidity;BME280_pressure;Samples;Min_cycle;Max_cycle;Signal;HPM_P1;HPM_P2
2023/04/29 00:02:06;;;;;;;;;;;18.60;88.10;;;;;;5094720;28;19999;-57
2023/04/29 00:04:33;;;;;;;;;;;18.60;88.20;;;;;;5094275;28;19963;-57
2023/04/29 00:06:59;;;;;;;;;;;18.60;88.20;;;;;;5110085;28;19911;-54
2023/04/29 00:09:24;;;;;;;;;;;18.60;88.20;;;;;;5094378;28;19956;-55
2023/04/29 00:11:50;;;;;;;;;;;18.60;88.20;;;;;;5094435;28;19909;-56
2023/04/29 00:14:16;;;;;;;;;;;18.60;88.20;;;;;;5094101;28;19915;-56
2023/04/29 00:16:41;;;;;;;;;;;18.60;88.30;;;;;;5094007;28;19908;-55
2023/04/29 00:19:07;;;;;;;;;;;18.60;88.30;;;;;;5094339;28;19918;-57
2023/04/29 00:21:32;;;;;;;;;;;18.60;88.30;;;;;;5094028;28;19969;-57
2023/04/29 00:23:58;;;;;;;;;;;18.50;88.20;;;;;;5094003;28;19908;-57
2023/04/29 00:26:23;;;;;;;;;;;18.60;88.30;;;;;;5094083;28;19912;-57
2023/04/29 00:28:49;;;;;;;;;;;18.50;88.30;;;;;;5092637;28;19912;-54
2023/04/29 00:31:14;;;;;;;;;;;18.50;88.30;;;;;;5092903;28;20010;-56
2023/04/29 00:33:40;;;;;;;;;;;18.50;88.40;;;;;;5094205;28;19930;-56
2023/04/29 00:36:06;;;;;;;;;;;18.50;88.40;;;;;;5094211;28;19915;-57
2023/04/29 00:38:31;;;;;;;;;;;18.50;88.40;;;;;;5094221;28;19908;-56
2023/04/29 00:40:57;;;;;;;;;;;18.50;88.40;;;;;;5094314;28;19916;-55
2023/04/29 00:43:23;;;;;;;;;;;18.50;88.90;;;;;;5093648;28;19960;-57
2023/04/29 00:45:49;;;;;;;;;;;18.50;88.40;;;;;;5094111;28;19908;-56
2023/04/29 00:48:15;;;;;;;;;;;18.50;88.40;;;;;;5093799;28;20328;-57
2023/04/29 00:50:41;;;;;;;;;;;18.50;88.60;;;;;;5093984;28;19908;-54
2023/04/29 00:53:07;;;;;;;;;;;18.50;88.60;;;;;;5094039;28;19908;-57
2023/04/29 00:55:32;;;;;;;;;;;18.50;88.60;;;;;;5109671;28;19908;-56
2023/04/29 00:57:58;;;;;;;;;;;18.40;88.60;;;;;;5093690;28;19973;-57
2023/04/29 01:00:25;;;;;;;;;;;18.50;88.70;;;;;;5093890;28;19920;-57
2023/04/29 01:02:52;;;;;;;;;;;18.40;88.60;;;;;;5093989;28;19908;-58
2023/04/29 01:05:18;;;;;;;;;;;18.50;88.70;;;;;;5093960;28;19908;-56
2023/04/29 01:07:46;;;;;;;;;;;18.50;88.70;;;;;;5093880;28;19961;-57
2023/04/29 01:10:14;;;;;;;;;;;18.40;88.70;;;;;;5093569;28;20291;-58
2023/04/29 01:12:49;;;;;;;;;;;18.40;88.70;;;;;;5093836;28;19908;-57
2023/04/29 01:15:15;;;;;;;;;;;18.40;88.70;;;;;;5093534;28;20389;-57
2023/04/29 01:17:49;;;;;;;;;;;18.40;88.80;;;;;;5096657;28;20002;-57
2023/04/29 01:20:15;;;;;;;;;;;18.40;88.80;;;;;;5097616;28;19916;-56
2023/04/29 01:22:41;;;;;;;;;;;18.40;88.80;;;;;;5097567;28;19953;-56
2023/04/29 01:25:06;;;;;;;;;;;18.40;88.90;;;;;;5096376;28;20359;-57
2023/04/29 01:27:35;;;;;;;;;;;18.40;88.90;;;;;;5097570;28;19912;-57
2023/04/29 01:30:07;;;;;;;;;;;18.40;88.90;;;;;;5113332;28;19915;-58
2023/04/29 01:32:42;;;;;;;;;;;18.40;88.90;;;;;;5112916;28;19957;-57
2023/04/29 01:35:07;;;;;;;;;;;18.40;88.90;;;;;;5097420;28;19912;-57
2023/04/29 01:37:36;;;;;;;;;;;18.40;89.00;;;;;;5096161;28;19908;-57
2023/04/29 01:40:07;;;;;;;;;;;18.30;88.90;;;;;;5096941;28;19908;-57
2023/04/29 01:42:32;;;;;;;;;;;18.30;89.00;;;;;;5097138;28;19999;-57
2023/04/29 01:44:59;;;;;;;;;;;18.30;89.10;;;;;;5097300;28;19998;-57
2023/04/29 01:47:25;;;;;;;;;;;18.30;89.00;;;;;;5097150;28;19962;-56
2023/04/29 01:49:51;;;;;;;;;;;18.30;89.00;;;;;;5097167;28;19912;-55
2023/04/29 01:52:16;;;;;;;;;;;18.30;89.10;;;;;;5097074;28;19908;-54
2023/04/29 01:54:43;;;;;;;;;;;18.30;89.10;;;;;;5096706;28;19951;-56
2023/04/29 01:57:08;;;;;;;;;;;18.30;89.20;;;;;;5097023;28;19950;-56
2023/04/29 01:59:33;;;;;;;;;;;18.30;89.20;;;;;;5096600;28;19912;-56
2023/04/29 02:01:59;;;;;;;;;;;18.30;89.20;;;;;;5096574;28;19916;-57
2023/04/29 02:04:25;;;;;;;;;;;18.30;89.20;;;;;;5096852;28;19915;-56
2023/04/29 02:06:53;;;;;;;;;;;18.30;89.30;;;;;;5096749;28;19947;-56
2023/04/29 02:09:18;;;;;;;;;;;18.30;89.20;;;;;;5096467;28;19914;-55
2023/04/29 02:11:44;;;;;;;;;;;18.30;89.30;;;;;;5096375;28;19908;-56
2023/04/29 02:14:11;;;;;;;;;;;18.30;89.30;;;;;;5096684;28;20323;-56
2023/04/29 02:16:36;;;;;;;;;;;18.20;89.20;;;;;;5096664;28;20002;-57
2023/04/29 02:19:02;;;;;;;;;;;18.30;89.30;;;;;;5112361;28;19943;-57
2023/04/29 02:21:27;;;;;;;;;;;18.20;89.30;;;;;;5096183;28;19919;-54
2023/04/29 02:23:53;;;;;;;;;;;18.20;89.40;;;;;;5096408;28;20377;-57
2023/04/29 02:26:19;;;;;;;;;;;18.20;89.50;;;;;;5105750;28;19912;-57
2023/04/29 02:28:45;;;;;;;;;;;18.20;89.40;;;;;;5116281;28;19914;-57
2023/04/29 02:31:11;;;;;;;;;;;18.20;89.40;;;;;;5115660;28;19914;-55
2023/04/29 02:33:36;;;;;;;;;;;18.20;89.50;;;;;;5116336;28;19908;-55
2023/04/29 02:36:02;;;;;;;;;;;18.20;90.00;;;;;;5120096;27;19916;-56
2023/04/29 02:38:27;;;;;;;;;;;18.20;89.50;;;;;;5121489;27;19912;-57
2023/04/29 02:40:53;;;;;;;;;;;18.20;89.60;;;;;;5114601;28;19919;-57
2023/04/29 02:43:18;;;;;;;;;;;18.20;89.60;;;;;;5114212;28;19919;-56
2023/04/29 02:45:44;;;;;;;;;;;18.20;89.70;;;;;;5114413;28;20627;-57
2023/04/29 02:48:09;;;;;;;;;;;18.20;89.60;;;;;;5114337;28;19915;-57
2023/04/29 02:50:35;;;;;;;;;;;18.20;89.70;;;;;;5113935;28;19915;-57
2023/04/29 02:53:00;;;;;;;;;;;18.20;89.70;;;;;;5114186;28;20374;-57
2023/04/29 02:55:26;;;;;;;;;;;18.20;89.70;;;;;;5113408;28;19914;-56
2023/04/29 02:57:52;;;;;;;;;;;18.20;89.80;;;;;;5116044;28;19908;-57
2023/04/29 03:00:17;;;;;;;;;;;18.20;89.80;;;;;;5116035;28;19916;-54
2023/04/29 03:02:43;;;;;;;;;;;18.20;89.80;;;;;;5116115;28;19908;-57
2023/04/29 03:05:09;;;;;;;;;;;18.20;89.80;;;;;;5115760;28;19996;-57
2023/04/29 03:07:34;;;;;;;;;;;18.20;89.80;;;;;;5115663;28;19916;-57
2023/04/29 03:10:00;;;;;;;;;;;18.10;89.90;;;;;;5115904;28;20365;-56
2023/04/29 03:12:25;;;;;;;;;;;18.10;89.80;;;;;;5116132;28;20363;-57
2023/04/29 03:14:51;;;;;;;;;;;18.10;89.90;;;;;;5115742;28;19907;-57
2023/04/29 03:17:17;;;;;;;;;;;18.10;89.90;;;;;;5114474;28;19911;-57
2023/04/29 03:19:43;;;;;;;;;;;18.10;90.00;;;;;;5115769;28;20278;-57
2023/04/29 03:22:10;;;;;;;;;;;18.10;90.00;;;;;;5115619;28;19999;-57
2023/04/29 03:24:36;;;;;;;;;;;18.10;89.90;;;;;;5115672;28;19908;-57
2023/04/29 03:27:01;;;;;;;;;;;18.10;89.90;;;;;;5115380;28;20330;-57
2023/04/29 03:29:27;;;;;;;;;;;18.10;89.90;;;;;;5115647;27;19908;-56
2023/04/29 03:31:53;;;;;;;;;;;18.10;90.00;;;;;;5115447;27;20011;-55
2023/04/29 03:34:18;;;;;;;;;;;18.10;90.00;;;;;;5115160;28;19912;-58
2023/04/29 03:36:44;;;;;;;;;;;18.10;90.00;;;;;;5115102;28;20317;-56
2023/04/29 03:39:11;;;;;;;;;;;18.10;90.00;;;;;;5114633;28;19915;-56
2023/04/29 03:41:36;;;;;;;;;;;18.10;89.90;;;;;;5115253;28;19920;-56
2023/04/29 03:44:02;;;;;;;;;;;18.10;90.00;;;;;;5115269;28;19920;-56
2023/04/29 03:46:27;;;;;;;;;;;18.10;90.00;;;;;;5115317;27;19907;-55
2023/04/29 03:48:54;;;;;;;;;;;18.10;90.00;;;;;;5113908;28;19911;-56
2023/04/29 03:51:21;;;;;;;;;;;18.10;90.00;;;;;;5115190;28;20274;-57
2023/04/29 03:53:46;;;;;;;;;;;18.10;90.00;;;;;;5113533;28;19907;-57
2023/04/29 03:56:12;;;;;;;;;;;18.10;90.00;;;;;;5113869;28;19908;-57
2023/04/29 03:58:37;;;;;;;;;;;18.10;90.00;;;;;;5114784;28;20248;-57
2023/04/29 04:01:03;;;;;;;;;;;18.10;90.00;;;;;;5114945;28;19982;-54
2023/04/29 04:03:28;;;;;;;;;;;18.00;90.00;;;;;;5115277;28;20000;-56
2023/04/29 04:05:54;;;;;;;;;;;18.10;90.10;;;;;;5114834;28;19907;-57
2023/04/29 04:08:19;;;;;;;;;;;18.00;90.10;;;;;;5114575;28;19953;-55
2023/04/29 04:10:45;;;;;;;;;;;18.00;90.00;;;;;;5115196;28;19998;-55
2023/04/29 04:13:10;;;;;;;;;;;18.00;90.10;;;;;;5114759;28;20294;-57
2023/04/29 04:15:36;;;;;;;;;;;18.00;90.10;;;;;;5114616;28;19994;-57
2023/04/29 04:18:02;;;;;;;;;;;18.00;90.10;;;;;;5114641;28;20268;-57
2023/04/29 04:20:27;;;;;;;;;;;18.00;90.20;;;;;;5114552;28;19919;-57
2023/04/29 04:22:53;;;;;;;;;;;18.00;90.30;;;;;;5114880;28;20390;-56
2023/04/29 04:25:19;;;;;;;;;;;18.00;90.10;;;;;;5114535;28;19998;-57
2023/04/29 04:27:44;;;;;;;;;;;18.00;90.10;;;;;;5114472;28;20007;-56
2023/04/29 04:30:10;;;;;;;;;;;18.00;89.90;;;;;;5113143;28;20003;-58
2023/04/29 04:32:36;;;;;;;;;;;18.00;89.80;;;;;;5114157;28;19914;-55
2023/04/29 04:35:02;;;;;;;;;;;18.00;90.00;;;;;;5114471;28;20324;-56
2023/04/29 04:37:27;;;;;;;;;;;18.00;90.10;;;;;;5114388;28;19908;-56
2023/04/29 04:39:53;;;;;;;;;;;18.00;90.10;;;;;;5114427;28;20267;-56
2023/04/29 04:42:18;;;;;;;;;;;18.00;90.00;;;;;;5114149;28;19916;-56
2023/04/29 04:44:44;;;;;;;;;;;18.00;90.00;;;;;;5114181;28;19965;-56
2023/04/29 04:47:10;;;;;;;;;;;18.00;89.90;;;;;;5114428;28;19908;-57
2023/04/29 04:49:36;;;;;;;;;;;17.90;89.70;;;;;;5114374;28;19914;-57
2023/04/29 04:52:01;;;;;;;;;;;17.90;90.00;;;;;;5116271;28;19907;-56
2023/04/29 04:54:27;;;;;;;;;;;18.00;90.20;;;;;;5118483;28;19908;-54
2023/04/29 04:56:52;;;;;;;;;;;17.90;89.90;;;;;;5118161;28;19908;-57
2023/04/29 04:59:18;;;;;;;;;;;17.90;89.70;;;;;;5117147;28;19951;-57
2023/04/29 05:01:43;;;;;;;;;;;17.90;89.90;;;;;;5118302;27;19996;-57
2023/04/29 05:04:09;;;;;;;;;;;17.90;89.90;;;;;;5118311;28;19963;-57
2023/04/29 05:06:34;;;;;;;;;;;17.90;90.00;;;;;;5118247;28;19908;-56
2023/04/29 05:09:00;;;;;;;;;;;17.90;90.00;;;;;;5118109;28;19929;-56
2023/04/29 05:11:25;;;;;;;;;;;17.90;90.00;;;;;;5118114;28;20355;-56
2023/04/29 05:13:51;;;;;;;;;;;17.90;90.00;;;;;;5117626;28;19931;-57
2023/04/29 05:16:17;;;;;;;;;;;17.90;90.10;;;;;;5117761;28;19908;-57
2023/04/29 05:18:44;;;;;;;;;;;17.90;90.00;;;;;;5118079;27;19947;-56
2023/04/29 05:21:10;;;;;;;;;;;17.90;90.00;;;;;;5117972;28;19912;-56
2023/04/29 05:23:35;;;;;;;;;;;17.90;90.00;;;;;;5118001;28;20363;-58
2023/04/29 05:26:01;;;;;;;;;;;17.90;90.10;;;;;;5116803;28;19915;-56
2023/04/29 05:28:26;;;;;;;;;;;17.80;90.10;;;;;;5117846;28;20429;-56
2023/04/29 05:30:52;;;;;;;;;;;17.90;90.10;;;;;;5117558;28;19911;-54
2023/04/29 05:33:18;;;;;;;;;;;17.80;90.20;;;;;;5117863;27;19914;-54
2023/04/29 05:35:43;;;;;;;;;;;17.80;90.10;;;;;;5118073;28;19912;-56
2023/04/29 05:38:09;;;;;;;;;;;17.80;90.20;;;;;;5116434;28;19958;-57
2023/04/29 05:40:35;;;;;;;;;;;17.80;90.20;;;;;;5117580;28;19912;-57
2023/04/29 05:43:00;;;;;;;;;;;17.80;90.20;;;;;;5117264;28;20366;-56
2023/04/29 05:45:26;;;;;;;;;;;17.80;90.20;;;;;;5117525;28;19908;-57
2023/04/29 05:47:51;;;;;;;;;;;17.80;90.20;;;;;;5116183;28;19907;-56
2023/04/29 05:50:17;;;;;;;;;;;17.80;90.20;;;;;;5117743;28;19915;-57
2023/04/29 05:52:42;;;;;;;;;;;17.80;90.30;;;;;;5117098;28;19914;-56
2023/04/29 05:55:08;;;;;;;;;;;17.80;90.30;;;;;;5117588;28;20252;-55
2023/04/29 05:57:33;;;;;;;;;;;17.80;90.30;;;;;;5117150;28;19912;-55
2023/04/29 05:59:59;;;;;;;;;;;17.80;90.30;;;;;;5117040;28;20358;-57
2023/04/29 06:02:25;;;;;;;;;;;17.80;90.30;;;;;;5116615;28;20356;-57
2023/04/29 06:04:51;;;;;;;;;;;17.80;90.30;;;;;;5115847;28;19918;-56
2023/04/29 06:07:16;;;;;;;;;;;17.80;90.30;;;;;;5130316;27;20360;-56
2023/04/29 06:09:42;;;;;;;;;;;17.80;90.40;;;;;;5137601;27;20250;-58
2023/04/29 06:12:08;;;;;;;;;;;17.70;90.40;;;;;;5125705;27;19918;-57
2023/04/29 06:14:34;;;;;;;;;;;17.70;90.40;;;;;;5121691;27;19912;-57
2023/04/29 06:16:59;;;;;;;;;;;17.70;90.40;;;;;;5117946;27;19908;-57
2023/04/29 06:19:25;;;;;;;;;;;17.70;90.40;;;;;;5106869;27;20270;-55
2023/04/29 06:21:50;;;;;;;;;;;17.70;90.40;;;;;;5128735;27;19923;-55
2023/04/29 06:24:16;;;;;;;;;;;17.70;90.40;;;;;;5116323;28;19903;-56
2023/04/29 06:26:41;;;;;;;;;;;17.70;90.50;;;;;;5116463;28;19903;-55
2023/04/29 06:29:07;;;;;;;;;;;17.70;90.50;;;;;;5115145;28;19915;-57
2023/04/29 06:31:32;;;;;;;;;;;17.70;90.50;;;;;;5115231;28;19904;-54
2023/04/29 06:33:58;;;;;;;;;;;17.70;90.50;;;;;;5115457;28;19904;-56
2023/04/29 06:36:23;;;;;;;;;;;17.70;90.50;;;;;;5116489;28;19919;-57
2023/04/29 06:38:49;;;;;;;;;;;17.70;90.60;;;;;;5114910;28;19912;-58
2023/04/29 06:41:14;;;;;;;;;;;17.70;90.60;;;;;;5111411;28;19916;-58
2023/04/29 06:43:42;;;;;;;;;;;17.70;90.60;;;;;;5115014;28;19922;-57
2023/04/29 06:46:07;;;;;;;;;;;17.70;90.70;;;;;;5114253;28;19915;-55
2023/04/29 06:48:33;;;;;;;;;;;17.70;88.50;;;;;;5114041;28;19911;-52
2023/04/29 06:50:58;;;;;;;;;;;17.70;87.30;;;;;;5112709;28;19908;-56
2023/04/29 06:53:24;;;;;;;;;;;17.70;87.70;;;;;;5116128;28;19915;-56
2023/04/29 06:55:50;;;;;;;;;;;17.70;88.50;;;;;;5114823;28;19915;-56
2023/04/29 06:58:16;;;;;;;;;;;17.70;89.40;;;;;;5121839;27;19937;-56
2023/04/29 07:00:45;;;;;;;;;;;17.70;89.60;;;;;;5115710;28;19916;-54
2023/04/29 07:03:10;;;;;;;;;;;17.70;89.80;;;;;;5113892;28;19914;-53
2023/04/29 07:05:39;;;;;;;;;;;17.70;90.00;;;;;;5133568;27;19919;-56
2023/04/29 07:08:05;;;;;;;;;;;17.70;90.10;;;;;;5123134;27;19919;-56
2023/04/29 07:10:30;;;;;;;;;;;17.70;90.10;;;;;;5129321;27;19908;-53
2023/04/29 07:12:56;;;;;;;;;;;17.70;89.90;;;;;;5128185;27;20010;-56
2023/04/29 07:15:21;;;;;;;;;;;17.70;88.20;;;;;;5117267;27;19951;-56
2023/04/29 07:17:47;;;;;;;;;;;17.70;89.10;;;;;;5115305;28;19911;-55
2023/04/29 07:20:13;;;;;;;;;;;17.70;89.60;;;;;;5115263;28;19998;-54
2023/04/29 07:22:38;;;;;;;;;;;17.70;89.80;;;;;;5115184;28;19962;-55
2023/04/29 07:25:04;;;;;;;;;;;17.70;90.00;;;;;;5115589;28;19911;-54
2023/04/29 07:27:31;;;;;;;;;;;17.70;90.00;;;;;;5115238;28;19953;-55
2023/04/29 07:29:58;;;;;;;;;;;17.70;90.00;;;;;;5115472;28;20384;-53
2023/04/29 07:32:23;;;;;;;;;;;17.70;90.10;;;;;;5114048;28;19912;-54
2023/04/29 07:34:49;;;;;;;;;;;17.70;90.10;;;;;;5115366;28;19908;-52
2023/04/29 07:37:15;;;;;;;;;;;17.70;90.10;;;;;;5115009;28;19908;-53
2023/04/29 07:39:41;;;;;;;;;;;17.70;90.10;;;;;;5115121;28;19967;-56
2023/04/29 07:42:07;;;;;;;;;;;17.70;90.10;;;;;;5115143;28;19973;-52
2023/04/29 07:44:32;;;;;;;;;;;17.70;90.20;;;;;;5113623;28;19966;-54
2023/04/29 07:46:57;;;;;;;;;;;17.70;90.20;;;;;;5115001;28;19908;-54
2023/04/29 07:49:24;;;;;;;;;;;17.70;90.20;;;;;;5114593;28;19912;-56
2023/04/29 07:51:50;;;;;;;;;;;17.70;90.20;;;;;;5114992;27;19912;-55
2023/04/29 07:54:15;;;;;;;;;;;17.70;90.20;;;;;;5114431;28;19908;-57
2023/04/29 07:56:41;;;;;;;;;;;17.70;90.20;;;;;;5113460;28;19908;-55
2023/04/29 07:59:07;;;;;;;;;;;17.70;90.20;;;;;;5113559;28;19965;-54
2023/04/29 08:01:32;;;;;;;;;;;17.70;90.20;;;;;;5113488;28;20347;-56
2023/04/29 08:03:58;;;;;;;;;;;17.70;90.20;;;;;;5114683;28;19947;-56
2023/04/29 08:06:23;;;;;;;;;;;17.70;90.20;;;;;;5114428;28;20392;-56
2023/04/29 08:08:49;;;;;;;;;;;17.70;90.20;;;;;;5114549;28;19920;-57
2023/04/29 08:11:18;;;;;;;;;;;17.70;90.20;;;;;;5114592;28;19907;-57
2023/04/29 08:13:44;;;;;;;;;;;17.70;90.20;;;;;;5114419;28;20381;-57
2023/04/29 08:16:10;;;;;;;;;;;17.70;90.20;;;;;;5113337;28;19915;-56
2023/04/29 08:18:36;;;;;;;;;;;17.70;90.20;;;;;;5113287;28;20239;-57
2023/04/29 08:21:02;;;;;;;;;;;17.70;90.20;;;;;;5114234;28;19961;-54
2023/04/29 08:23:28;;;;;;;;;;;17.70;90.20;;;;;;5114331;28;20270;-55
2023/04/29 08:25:54;;;;;;;;;;;17.70;90.20;;;;;;5114254;28;19912;-54
2023/04/29 08:28:23;;;;;;;;;;;17.70;90.20;;;;;;5114355;28;19908;-56
2023/04/29 08:30:49;;;;;;;;;;;17.70;90.20;;;;;;5114786;28;19915;-54
2023/04/29 08:33:14;;;;;;;;;;;17.70;90.20;;;;;;5114343;28;19908;-56
2023/04/29 08:35:40;;;;;;;;;;;17.70;90.20;;;;;;5114187;28;19914;-57
2023/04/29 08:38:06;;;;;;;;;;;17.70;90.20;;;;;;5114514;28;19907;-54
2023/04/29 08:40:49;;;;;;;;;;;17.60;90.20;;;;;;5114274;28;19923;-54
2023/04/29 08:43:15;;;;;;;;;;;17.60;90.20;;;;;;5114236;28;19927;-54
2023/04/29 08:45:42;;;;;;;;;;;17.70;90.20;;;;;;5114306;28;19915;-57
2023/04/29 08:48:08;;;;;;;;;;;17.70;90.20;;;;;;5114230;28;19919;-56
2023/04/29 08:50:40;;;;;;;;;;;17.70;90.20;;;;;;5114075;28;19912;-54
2023/04/29 08:53:07;;;;;;;;;;;17.70;90.20;;;;;;5114251;28;19989;-56
2023/04/29 08:55:39;;;;;;;;;;;17.70;90.20;;;;;;5114100;28;19915;-56
2023/04/29 08:58:05;;;;;;;;;;;17.60;90.10;;;;;;5114227;28;19914;-53
2023/04/29 09:00:31;;;;;;;;;;;17.60;90.20;;;;;;5113727;28;19923;-56
2023/04/29 09:02:57;;;;;;;;;;;17.70;90.20;;;;;;5112798;28;20375;-56
2023/04/29 09:05:24;;;;;;;;;;;17.70;90.20;;;;;;5114475;28;19908;-55
2023/04/29 09:07:50;;;;;;;;;;;17.70;90.20;;;;;;5113906;28;19908;-57
2023/04/29 09:10:16;;;;;;;;;;;17.70;90.20;;;;;;5112479;28;19908;-56
2023/04/29 09:12:42;;;;;;;;;;;17.60;90.10;;;;;;5113666;28;19908;-56
2023/04/29 09:15:07;;;;;;;;;;;17.60;90.10;;;;;;5113669;28;19914;-55
2023/04/29 09:17:39;;;;;;;;;;;17.70;90.20;;;;;;5113928;28;20354;-57
2023/04/29 09:20:20;;;;;;;;;;;17.60;90.10;;;;;;5113610;28;19915;-57
2023/04/29 09:22:46;;;;;;;;;;;17.60;90.10;;;;;;5113951;28;19915;-56
2023/04/29 09:25:12;;;;;;;;;;;17.60;90.10;;;;;;5113638;28;19907;-54
2023/04/29 09:27:37;;;;;;;;;;;17.60;90.10;;;;;;5113724;28;19915;-57
2023/04/29 09:30:03;;;;;;;;;;;17.60;90.10;;;;;;5113726;28;19915;-56
2023/04/29 09:32:28;;;;;;;;;;;17.60;90.10;;;;;;5112336;28;20197;-57
2023/04/29 09:34:56;;;;;;;;;;;17.60;90.40;;;;;;5113730;28;19916;-56
2023/04/29 09:37:23;;;;;;;;;;;17.60;90.10;;;;;;5114700;28;19968;-56
2023/04/29 09:39:48;;;;;;;;;;;17.60;90.10;;;;;;5117473;28;20358;-57
2023/04/29 09:42:14;;;;;;;;;;;17.60;90.10;;;;;;5116928;27;19923;-55
2023/04/29 09:44:40;;;;;;;;;;;17.60;90.10;;;;;;5117221;28;19908;-53
2023/04/29 09:47:07;;;;;;;;;;;17.60;90.10;;;;;;5117267;28;20346;-57
2023/04/29 09:49:36;;;;;;;;;;;17.60;90.10;;;;;;5117082;28;20005;-57
2023/04/29 09:52:03;;;;;;;;;;;17.60;90.10;;;;;;5116973;28;20339;-56
2023/04/29 09:54:29;;;;;;;;;;;17.60;90.10;;;;;;5116977;28;20359;-56
2023/04/29 09:56:56;;;;;;;;;;;17.60;90.10;;;;;;5117060;28;19915;-56
2023/04/29 09:59:21;;;;;;;;;;;17.60;90.10;;;;;;5117111;28;19908;-56
2023/04/29 10:01:48;;;;;;;;;;;17.60;90.10;;;;;;5116867;28;20384;-55
2023/04/29 10:04:14;;;;;;;;;;;17.60;90.10;;;;;;5116443;28;19965;-56
2023/04/29 10:06:41;;;;;;;;;;;17.60;90.10;;;;;;5116501;27;20017;-54
2023/04/29 10:09:07;;;;;;;;;;;17.60;90.10;;;;;;5116572;28;20006;-55
2023/04/29 10:11:33;;;;;;;;;;;17.60;90.10;;;;;;5116594;28;20010;-54
2023/04/29 10:13:59;;;;;;;;;;;17.60;90.10;;;;;;5116495;28;19908;-54
2023/04/29 10:16:33;;;;;;;;;;;17.60;90.10;;;;;;5116730;28;19918;-54
2023/04/29 10:18:59;;;;;;;;;;;17.60;90.10;;;;;;5116391;28;19908;-52
2023/04/29 10:21:29;;;;;;;;;;;17.60;90.10;;;;;;5116323;27;19969;-56
2023/04/29 10:23:55;;;;;;;;;;;17.60;90.10;;;;;;5116437;28;19920;-55
2023/04/29 10:26:22;;;;;;;;;;;17.60;90.10;;;;;;5116420;28;19912;-56
2023/04/29 10:28:50;;;;;;;;;;;17.60;90.10;;;;;;5115050;28;19947;-55
2023/04/29 10:31:16;;;;;;;;;;;17.60;90.10;;;;;;5116695;28;19915;-55
2023/04/29 10:33:44;;;;;;;;;;;17.60;90.10;;;;;;5116414;27;19908;-56
2023/04/29 10:36:10;;;;;;;;;;;17.60;90.10;;;;;;5116278;28;19914;-55
2023/04/29 10:38:40;;;;;;;;;;;17.60;90.10;;;;;;5116523;28;20295;-56
2023/04/29 10:41:09;;;;;;;;;;;17.60;90.10;;;;;;5114656;28;20280;-55
2023/04/29 10:43:34;;;;;;;;;;;17.60;90.10;;;;;;5115875;28;20491;-52
2023/04/29 10:46:15;;;;;;;;;;;17.60;90.20;;;;;;5116195;28;20010;-54
2023/04/29 10:48:44;;;;;;;;;;;17.60;90.20;;;;;;5114756;28;20307;-54
2023/04/29 10:51:09;;;;;;;;;;;17.70;90.10;;;;;;5115668;28;19915;-57
2023/04/29 10:53:35;;;;;;;;;;;17.80;90.10;;;;;;5115894;27;20411;-54
2023/04/29 10:56:06;;;;;;;;;;;17.80;90.00;;;;;;5115578;28;19915;-57
2023/04/29 10:58:40;;;;;;;;;;;17.90;89.80;;;;;;5115589;28;20362;-57
2023/04/29 11:01:09;;;;;;;;;;;18.00;89.60;;;;;;5114122;28;19919;-55
2023/04/29 11:03:45;;;;;;;;;;;18.10;89.40;;;;;;5115644;28;19912;-57
2023/04/29 11:06:10;;;;;;;;;;;18.20;89.20;;;;;;5115528;28;19908;-56
2023/04/29 11:08:38;;;;;;;;;;;18.30;89.10;;;;;;5115815;28;19914;-56
2023/04/29 11:11:05;;;;;;;;;;;18.30;88.80;;;;;;5114435;28;19918;-56
2023/04/29 11:13:32;;;;;;;;;;;18.40;88.60;;;;;;5114337;28;20365;-53
2023/04/29 11:16:04;;;;;;;;;;;18.40;88.40;;;;;;5115446;28;19914;-53
2023/04/29 11:18:30;;;;;;;;;;;18.50;88.30;;;;;;5113897;28;19908;-51
2023/04/29 11:21:04;;;;;;;;;;;18.50;88.20;;;;;;5113987;28;19922;-55
2023/04/29 11:23:33;;;;;;;;;;;18.50;88.00;;;;;;5115845;28;19915;-54
2023/04/29 11:25:58;;;;;;;;;;;18.60;88.00;;;;;;5115077;28;19908;-54
2023/04/29 11:28:26;;;;;;;;;;;18.60;88.00;;;;;;5113972;28;19981;-53
2023/04/29 11:30:52;;;;;;;;;;;18.60;87.90;;;;;;5114728;28;19908;-51
2023/04/29 11:33:18;;;;;;;;;;;18.60;87.80;;;;;;5115244;28;20274;-56
2023/04/29 11:35:44;;;;;;;;;;;18.60;87.80;;;;;;5114991;28;20307;-53
2023/04/29 11:38:10;;;;;;;;;;;18.60;87.80;;;;;;5114886;28;19994;-55
2023/04/29 11:40:40;;;;;;;;;;;18.60;87.80;;;;;;5114679;28;19920;-55
2023/04/29 11:43:05;;;;;;;;;;;18.60;87.80;;;;;;5115049;28;19956;-54
2023/04/29 11:45:34;;;;;;;;;;;18.60;87.80;;;;;;5114960;28;20315;-54
2023/04/29 11:48:00;;;;;;;;;;;18.60;87.90;;;;;;5114306;28;19958;-54
2023/04/29 11:50:26;;;;;;;;;;;18.60;87.80;;;;;;5114771;28;20330;-53
2023/04/29 11:52:51;;;;;;;;;;;18.60;87.90;;;;;;5113573;28;19946;-53
2023/04/29 11:55:17;;;;;;;;;;;18.60;87.80;;;;;;5114807;28;19958;-51
2023/04/29 11:57:43;;;;;;;;;;;18.60;87.90;;;;;;5114823;28;19930;-54
2023/04/29 12:00:11;;;;;;;;;;;18.50;87.90;;;;;;5114330;28;20343;-54
2023/04/29 12:02:36;;;;;;;;;;;18.60;88.00;;;;;;5114532;28;19915;-55
2023/04/29 12:05:06;;;;;;;;;;;18.60;88.00;;;;;;5114712;28;20325;-56
2023/04/29 12:07:31;;;;;;;;;;;18.50;88.00;;;;;;5114564;28;19915;-56
2023/04/29 12:09:57;;;;;;;;;;;18.60;88.00;;;;;;5114680;28;19908;-55
2023/04/29 12:12:22;;;;;;;;;;;18.60;88.10;;;;;;5114561;28;19930;-55
2023/04/29 12:14:48;;;;;;;;;;;18.50;88.00;;;;;;5113075;28;20267;-56
2023/04/29 12:17:14;;;;;;;;;;;18.60;88.10;;;;;;5114290;28;19919;-57
2023/04/29 12:19:41;;;;;;;;;;;18.50;88.00;;;;;;5113085;28;19907;-56
2023/04/29 12:22:06;;;;;;;;;;;18.50;88.10;;;;;;5114246;28;19924;-54
2023/04/29 12:24:34;;;;;;;;;;;18.50;88.00;;;;;;5114406;28;20065;-54
2023/04/29 12:27:00;;;;;;;;;;;18.50;88.00;;;;;;5113952;28;20005;-55
2023/04/29 12:29:25;;;;;;;;;;;18.60;88.10;;;;;;5112648;28;19951;-54
2023/04/29 12:31:51;;;;;;;;;;;18.50;88.00;;;;;;5114130;28;20371;-53
2023/04/29 12:34:23;;;;;;;;;;;18.50;88.20;;;;;;5113617;28;19908;-54
2023/04/29 12:36:48;;;;;;;;;;;18.60;88.00;;;;;;5112533;28;20362;-54
2023/04/29 12:39:14;;;;;;;;;;;18.50;87.90;;;;;;5113662;28;19938;-55
2023/04/29 12:41:41;;;;;;;;;;;18.50;88.00;;;;;;5113813;28;19920;-52
2023/04/29 12:44:07;;;;;;;;;;;18.50;87.90;;;;;;5113466;28;20239;-53
2023/04/29 12:46:40;;;;;;;;;;;18.50;88.00;;;;;;5113203;28;20006;-55
2023/04/29 12:49:05;;;;;;;;;;;18.50;88.00;;;;;;5113660;28;19954;-55
2023/04/29 12:51:31;;;;;;;;;;;18.50;88.00;;;;;;5113485;28;19908;-55
2023/04/29 12:54:00;;;;;;;;;;;18.50;88.10;;;;;;5113772;28;19915;-53
2023/04/29 12:56:26;;;;;;;;;;;18.50;88.10;;;;;;5113574;28;19984;-56
2023/04/29 12:58:52;;;;;;;;;;;18.50;88.10;;;;;;5113477;28;20343;-52
2023/04/29 13:01:17;;;;;;;;;;;18.50;88.10;;;;;;5113626;28;19957;-55
2023/04/29 13:03:43;;;;;;;;;;;18.60;88.20;;;;;;5113636;28;19960;-54
2023/04/29 13:06:08;;;;;;;;;;;18.50;88.10;;;;;;5112540;28;19908;-56
2023/04/29 13:08:34;;;;;;;;;;;18.50;88.10;;;;;;5112432;28;20307;-56
2023/04/29 13:10:59;;;;;;;;;;;18.50;88.10;;;;;;5112534;28;20346;-56
2023/04/29 13:13:26;;;;;;;;;;;18.50;88.10;;;;;;5116318;28;19908;-56
2023/04/29 13:15:51;;;;;;;;;;;18.50;88.00;;;;;;5117627;28;19908;-56
2023/04/29 13:18:17;;;;;;;;;;;18.50;88.00;;;;;;5117822;28;20368;-55
2023/04/29 13:20:43;;;;;;;;;;;18.50;88.00;;;;;;5117922;28;19916;-55
2023/04/29 13:23:08;;;;;;;;;;;18.50;88.00;;;;;;5116006;28;19908;-53
2023/04/29 13:25:34;;;;;;;;;;;18.60;88.00;;;;;;5117138;28;19918;-56
2023/04/29 13:27:59;;;;;;;;;;;18.60;88.00;;;;;;5117640;28;19911;-57
2023/04/29 13:30:25;;;;;;;;;;;18.60;87.90;;;;;;5116307;28;20417;-52
2023/04/29 13:32:50;;;;;;;;;;;18.60;87.90;;;;;;5117614;28;20327;-55
2023/04/29 13:35:16;;;;;;;;;;;18.60;87.80;;;;;;5115817;28;20048;-56
2023/04/29 13:37:41;;;;;;;;;;;18.60;87.80;;;;;;5117187;28;20044;-56
2023/04/29 13:40:07;;;;;;;;;;;18.70;87.80;;;;;;5116968;28;19957;-55
2023/04/29 13:42:32;;;;;;;;;;;18.70;87.70;;;;;;5116931;28;19915;-55
2023/04/29 13:44:58;;;;;;;;;;;18.70;87.70;;;;;;5116940;27;19915;-54
2023/04/29 13:47:23;;;;;;;;;;;18.70;87.70;;;;;;5117468;28;20266;-57
2023/04/29 13:49:49;;;;;;;;;;;18.70;87.70;;;;;;5116988;28;20317;-55
2023/04/29 13:52:14;;;;;;;;;;;18.70;87.60;;;;;;5116972;28;19908;-55
2023/04/29 13:54:40;;;;;;;;;;;18.70;87.60;;;;;;5117136;28;20281;-54
2023/04/29 13:57:05;;;;;;;;;;;18.70;87.60;;;;;;5117126;28;19908;-55
2023/04/29 13:59:31;;;;;;;;;;;18.70;87.50;;;;;;5117219;28;19962;-54
2023/04/29 14:01:57;;;;;;;;;;;18.70;87.50;;;;;;5117008;28;19916;-54
2023/04/29 14:04:23;;;;;;;;;;;18.70;87.50;;;;;;5116927;28;19912;-53
2023/04/29 14:06:48;;;;;;;;;;;18.70;87.50;;;;;;5116854;28;20346;-51
2023/04/29 14:09:14;;;;;;;;;;;18.70;87.50;;;;;;5117041;28;20002;-55
2023/04/29 14:11:40;;;;;;;;;;;18.70;87.50;;;;;;5116748;27;19935;-55